sensor_id;sensor_type;location;lat;lon;timestamp;pressure;altitude;pressure_sealevel;temperature;humidity
52983;BME280;48698;45.736;13.926;2023-09-07T00:00:00;97886.69;;;18.14;100.00
52983;BME280;48698;45.736;13.926;2023-09-07T00:05:03;98118.56;;;19.66;100.00
52983;BME280;48698;45.736;13.926;2023-09-07T00:10:09;98072.38;;;19.26;100.00
52983;BME280;48698;45.736;13.926;2023-09-07T00:15:12;98069.13;;;19.45;100.00
52983;BME280;48698;45.736;13.926;2023-09-07T00:20:14;98124.44;;;19.49;100.00
52983;BME280;48698;45.736;13.926;2023-09-07T00:25:17;98149.19;;;19.43;100.00
52983;BME280;48698;45.736;13.926;2023-09-07T00:30:21;98153.72;;;19.53;100.00
52983;BME280;48698;45.736;13.926;2023-09-07T00:35:24;97839.69;;;17.73;100.00
52983;BME280;48698;45.736;13.926;2023-09-07T00:40:27;98127.28;;;19.58;100.00
52983;BME280;48698;45.736;13.926;2023-09-07T00:45:30;98117.56;;;19.34;100.00
52983;BME280;48698;45.736;13.926;2023-09-07T00:50:33;98096.06;;;19.45;100.00
52983;BME280;48698;45.736;13.926;2023-09-07T00:55:37;98112.59;;;19.40;100.00
52983;BME280;48698;45.736;13.926;2023-09-07T01:00:40;97892.44;;;18.20;100.00
52983;BME280;48698;45.736;13.926;2023-09-07T01:05:56;98104.56;;;19.05;100.00
52983;BME280;48698;45.736;13.926;2023-09-07T01:11:00;98054.34;;;18.93;100.00
52983;BME280;48698;45.736;13.926;2023-09-07T01:16:03;98096.03;;;19.78;100.00
52983;BME280;48698;45.736;13.926;2023-09-07T01:21:07;98100.94;;;19.84;100.00
52983;BME280;48698;45.736;13.926;2023-09-07T01:26:10;98035.03;;;19.33;100.00
52983;BME280;48698;45.736;13.926;2023-09-07T01:31:14;98104.88;;;19.58;100.00
52983;BME280;48698;45.736;13.926;2023-09-07T01:36:18;97981.72;;;18.82;100.00
52983;BME280;48698;45.736;13.926;2023-09-07T01:41:21;98049.25;;;19.13;100.00
52983;BME280;48698;45.736;13.926;2023-09-07T01:46:24;97918.50;;;18.31;100.00
52983;BME280;48698;45.736;13.926;2023-09-07T01:51:31;97956.97;;;18.77;100.00
52983;BME280;48698;45.736;13.926;2023-09-07T01:56:33;98026.75;;;19.25;100.00
52983;BME280;48698;45.736;13.926;2023-09-07T02:01:36;97853.25;;;18.29;100.00
52983;BME280;48698;45.736;13.926;2023-09-07T02:06:40;98037.03;;;19.53;100.00
52983;BME280;48698;45.736;13.926;2023-09-07T02:11:42;97942.81;;;18.97;100.00
52983;BME280;48698;45.736;13.926;2023-09-07T02:16:45;98069.00;;;19.69;100.00
52983;BME280;48698;45.736;13.926;2023-09-07T02:21:48;97856.44;;;18.56;100.00
52983;BME280;48698;45.736;13.926;2023-09-07T02:26:51;98047.19;;;19.49;100.00
52983;BME280;48698;45.736;13.926;2023-09-07T02:31:54;98061.78;;;19.47;100.00
52983;BME280;48698;45.736;13.926;2023-09-07T02:36:56;98009.25;;;19.08;100.00
52983;BME280;48698;45.736;13.926;2023-09-07T02:42:00;98043.38;;;19.30;100.00
52983;BME280;48698;45.736;13.926;2023-09-07T02:47:02;98005.69;;;19.07;100.00
52983;BME280;48698;45.736;13.926;2023-09-07T02:52:05;97953.31;;;19.00;100.00
52983;BME280;48698;45.736;13.926;2023-09-07T02:57:09;98036.41;;;19.27;100.00
52983;BME280;48698;45.736;13.926;2023-09-07T03:02:11;98020.25;;;19.38;100.00
52983;BME280;48698;45.736;13.926;2023-09-07T03:07:15;97852.16;;;18.31;100.00
52983;BME280;48698;45.736;13.926;2023-09-07T03:12:18;98021.38;;;19.58;100.00
52983;BME280;48698;45.736;13.926;2023-09-07T03:17:20;97986.31;;;19.36;100.00
52983;BME280;48698;45.736;13.926;2023-09-07T03:22:23;97939.81;;;19.34;100.00
52983;BME280;48698;45.736;13.926;2023-09-07T03:27:27;97986.84;;;19.52;100.00
52983;BME280;48698;45.736;13.926;2023-09-07T03:32:30;97741.56;;;18.14;100.00
52983;BME280;48698;45.736;13.926;2023-09-07T03:37:37;98023.19;;;19.69;100.00
52983;BME280;48698;45.736;13.926;2023-09-07T03:42:40;97917.56;;;19.09;100.00
52983;BME280;48698;45.736;13.926;2023-09-07T03:47:43;97995.28;;;19.47;100.00
52983;BME280;48698;45.736;13.926;2023-09-07T03:52:46;98019.78;;;19.44;100.00
52983;BME280;48698;45.736;13.926;2023-09-07T03:57:49;98010.34;;;19.39;100.00
52983;BME280;48698;45.736;13.926;2023-09-07T04:02:52;98029.41;;;19.36;100.00
52983;BME280;48698;45.736;13.926;2023-09-07T04:07:55;97917.47;;;18.67;100.00
52983;BME280;48698;45.736;13.926;2023-09-07T04:12:57;98008.03;;;19.12;100.00
52983;BME280;48698;45.736;13.926;2023-09-07T04:18:00;98033.84;;;19.15;100.00
52983;BME280;48698;45.736;13.926;2023-09-07T04:23:03;98017.44;;;19.06;100.00
52983;BME280;48698;45.736;13.926;2023-09-07T04:28:06;98014.97;;;19.03;100.00
52983;BME280;48698;45.736;13.926;2023-09-07T04:33:09;97903.34;;;18.30;100.00
52983;BME280;48698;45.736;13.926;2023-09-07T04:38:12;98004.09;;;19.05;100.00
52983;BME280;48698;45.736;13.926;2023-09-07T04:43:15;97946.44;;;18.63;100.00
52983;BME280;48698;45.736;13.926;2023-09-07T04:48:18;97977.28;;;18.59;100.00
52983;BME280;48698;45.736;13.926;2023-09-07T04:53:24;97977.97;;;18.50;100.00
52983;BME280;48698;45.736;13.926;2023-09-07T04:58:27;97889.19;;;17.34;100.00
52983;BME280;48698;45.736;13.926;2023-09-07T05:03:30;97975.72;;;17.38;100.00
52983;BME280;48698;45.736;13.926;2023-09-07T05:08:33;98044.84;;;17.47;100.00
52983;BME280;48698;45.736;13.926;2023-09-07T05:13:36;98081.25;;;17.76;100.00
52983;BME280;48698;45.736;13.926;2023-09-07T05:18:40;98060.75;;;17.99;100.00
52983;BME280;48698;45.736;13.926;2023-09-07T05:23:43;98084.06;;;18.22;100.00
52983;BME280;48698;45.736;13.926;2023-09-07T05:28:46;97870.00;;;17.28;100.00
52983;BME280;48698;45.736;13.926;2023-09-07T05:33:49;97863.22;;;17.59;100.00
52983;BME280;48698;45.736;13.926;2023-09-07T05:38:54;98069.69;;;19.15;100.00
52983;BME280;48698;45.736;13.926;2023-09-07T05:43:57;98085.75;;;19.39;100.00
52983;BME280;48698;45.736;13.926;2023-09-07T05:49:00;97980.00;;;18.81;100.00
52983;BME280;48698;45.736;13.926;2023-09-07T05:54:03;98100.47;;;19.57;100.00
52983;BME280;48698;45.736;13.926;2023-09-07T05:59:06;98086.97;;;19.46;100.00
52983;BME280;48698;45.736;13.926;2023-09-07T06:04:08;98086.00;;;19.69;100.00
52983;BME280;48698;45.736;13.926;2023-09-07T06:09:11;97804.63;;;18.10;100.00
52983;BME280;48698;45.736;13.926;2023-09-07T06:14:14;97809.25;;;18.19;100.00
52983;BME280;48698;45.736;13.926;2023-09-07T06:19:18;97804.88;;;18.29;100.00
52983;BME280;48698;45.736;13.926;2023-09-07T06:24:21;97832.03;;;18.59;100.00
52983;BME280;48698;45.736;13.926;2023-09-07T06:29:24;97822.72;;;18.63;100.00
52983;BME280;48698;45.736;13.926;2023-09-07T06:34:27;98037.91;;;19.96;100.00
52983;BME280;48698;45.736;13.926;2023-09-07T06:39:30;98082.53;;;20.43;100.00
52983;BME280;48698;45.736;13.926;2023-09-07T06:44:34;98085.47;;;20.51;100.00
52983;BME280;48698;45.736;13.926;2023-09-07T06:49:39;98062.19;;;20.39;100.00
52983;BME280;48698;45.736;13.926;2023-09-07T06:54:43;97885.22;;;19.43;100.00
52983;BME280;48698;45.736;13.926;2023-09-07T06:59:45;97815.25;;;19.21;100.00
52983;BME280;48698;45.736;13.926;2023-09-07T07:04:48;97998.53;;;20.48;100.00
52983;BME280;48698;45.736;13.926;2023-09-07T07:09:52;97877.34;;;19.83;100.00
52983;BME280;48698;45.736;13.926;2023-09-07T07:14:55;98040.44;;;20.93;100.00
52983;BME280;48698;45.736;13.926;2023-09-07T07:19:58;97974.16;;;20.80;100.00
52983;BME280;48698;45.736;13.926;2023-09-07T07:25:01;98084.47;;;21.65;100.00
52983;BME280;48698;45.736;13.926;2023-09-07T07:30:09;97911.13;;;20.90;100.00
52983;BME280;48698;45.736;13.926;2023-09-07T07:35:12;98128.25;;;22.30;100.00
52983;BME280;48698;45.736;13.926;2023-09-07T07:40:15;98078.28;;;22.34;100.00
52983;BME280;48698;45.736;13.926;2023-09-07T07:45:17;98123.19;;;22.75;100.00
52983;BME280;48698;45.736;13.926;2023-09-07T07:50:22;97915.75;;;21.68;100.00
52983;BME280;48698;45.736;13.926;2023-09-07T07:55:26;98124.34;;;22.91;100.00
52983;BME280;48698;45.736;13.926;2023-09-07T08:00:30;98118.75;;;23.22;100.00
52983;BME280;48698;45.736;13.926;2023-09-07T08:05:34;97955.97;;;22.30;100.00
52983;BME280;48698;45.736;13.926;2023-09-07T08:10:37;98126.56;;;23.44;100.00
52983;BME280;48698;45.736;13.926;2023-09-07T08:15:40;98087.63;;;23.35;100.00
52983;BME280;48698;45.736;13.926;2023-09-07T08:20:43;98074.78;;;23.74;100.00
52983;BME280;48698;45.736;13.926;2023-09-07T08:25:46;98121.56;;;24.23;100.00
52983;BME280;48698;45.736;13.926;2023-09-07T08:30:50;98124.16;;;24.42;100.00
52983;BME280;48698;45.736;13.926;2023-09-07T08:35:57;98006.06;;;23.83;100.00
52983;BME280;48698;45.736;13.926;2023-09-07T08:41:01;98091.66;;;24.67;100.00
52983;BME280;48698;45.736;13.926;2023-09-07T08:46:15;98125.09;;;25.03;100.00
52983;BME280;48698;45.736;13.926;2023-09-07T08:51:20;98083.50;;;25.03;100.00
52983;BME280;48698;45.736;13.926;2023-09-07T08:56:24;98133.56;;;25.18;100.00
52983;BME280;48698;45.736;13.926;2023-09-07T09:01:27;98122.25;;;25.05;99.39
52983;BME280;48698;45.736;13.926;2023-09-07T09:06:34;98111.97;;;25.60;99.03
52983;BME280;48698;45.736;13.926;2023-09-07T09:11:37;98101.41;;;25.57;97.68
52983;BME280;48698;45.736;13.926;2023-09-07T09:16:46;98083.38;;;25.56;97.65
52983;BME280;48698;45.736;13.926;2023-09-07T09:21:50;98122.22;;;26.34;95.87
52983;BME280;48698;45.736;13.926;2023-09-07T10:02:49;98035.81;;;26.92;87.71
52983;BME280;48698;45.736;13.926;2023-09-07T10:49:11;98124.03;;;27.80;85.65
52983;BME280;48698;45.736;13.926;2023-09-07T10:59:02;98055.56;;;27.02;88.50
52983;BME280;48698;45.736;13.926;2023-09-07T11:04:05;98108.72;;;27.22;91.14
52983;BME280;48698;45.736;13.926;2023-09-07T11:09:11;97892.78;;;26.07;88.25
52983;BME280;48698;45.736;13.926;2023-09-07T11:14:15;98033.41;;;27.85;87.34
52983;BME280;48698;45.736;13.926;2023-09-07T11:19:22;98098.34;;;27.10;87.69
52983;BME280;48698;45.736;13.926;2023-09-07T11:24:27;98084.53;;;27.44;89.69
52983;BME280;48698;45.736;13.926;2023-09-07T11:29:33;98078.06;;;27.12;92.81
52983;BME280;48698;45.736;13.926;2023-09-07T11:34:49;98039.56;;;26.99;91.87
52983;BME280;48698;45.736;13.926;2023-09-07T11:39:53;98088.94;;;26.88;89.85
52983;BME280;48698;45.736;13.926;2023-09-07T11:44:57;97996.47;;;27.11;91.69
52983;BME280;48698;45.736;13.926;2023-09-07T11:50:00;98070.19;;;27.34;87.89
52983;BME280;48698;45.736;13.926;2023-09-07T11:55:04;98061.00;;;27.27;89.06
52983;BME280;48698;45.736;13.926;2023-09-07T12:00:08;98027.97;;;27.13;89.72
52983;BME280;48698;45.736;13.926;2023-09-07T12:05:14;97956.19;;;26.00;88.00
52983;BME280;48698;45.736;13.926;2023-09-07T12:10:19;98086.25;;;26.96;87.78
52983;BME280;48698;45.736;13.926;2023-09-07T12:15:23;98037.50;;;26.77;88.41
52983;BME280;48698;45.736;13.926;2023-09-07T12:20:26;98069.03;;;27.12;87.22
52983;BME280;48698;45.736;13.926;2023-09-07T12:25:30;97935.28;;;26.00;88.54
52983;BME280;48698;45.736;13.926;2023-09-07T12:30:33;97786.22;;;25.46;87.96
52983;BME280;48698;45.736;13.926;2023-09-07T12:35:37;97937.16;;;27.05;91.34
52983;BME280;48698;45.736;13.926;2023-09-07T12:40:41;97890.91;;;26.64;89.10
52983;BME280;48698;45.736;13.926;2023-09-07T12:45:48;97996.78;;;26.76;89.44
52983;BME280;48698;45.736;13.926;2023-09-07T12:50:53;97998.50;;;26.68;88.47
52983;BME280;48698;45.736;13.926;2023-09-07T12:55:57;97947.94;;;26.17;88.28
52983;BME280;48698;45.736;13.926;2023-09-07T13:01:00;97897.69;;;26.04;88.12
52983;BME280;48698;45.736;13.926;2023-09-07T13:06:04;97984.69;;;26.22;86.37
52983;BME280;48698;45.736;13.926;2023-09-07T13:11:09;97927.78;;;25.94;87.56
52983;BME280;48698;45.736;13.926;2023-09-07T13:16:12;98036.34;;;27.04;86.30
52983;BME280;48698;45.736;13.926;2023-09-07T13:21:17;97958.47;;;26.69;85.19
52983;BME280;48698;45.736;13.926;2023-09-07T13:26:21;97874.56;;;26.48;87.11
52983;BME280;48698;45.736;13.926;2023-09-07T13:31:25;97995.94;;;26.99;84.68
52983;BME280;48698;45.736;13.926;2023-09-07T13:36:29;98019.97;;;26.96;86.91
52983;BME280;48698;45.736;13.926;2023-09-07T13:41:32;97915.94;;;26.68;87.80
52983;BME280;48698;45.736;13.926;2023-09-07T13:46:36;98007.97;;;27.37;88.42
52983;BME280;48698;45.736;13.926;2023-09-07T13:51:40;98021.56;;;27.61;90.82
52983;BME280;48698;45.736;13.926;2023-09-07T13:56:44;98035.25;;;27.45;87.96
52983;BME280;48698;45.736;13.926;2023-09-07T14:01:49;98029.25;;;27.42;88.00
52983;BME280;48698;45.736;13.926;2023-09-07T14:06:54;97997.50;;;27.65;85.23
52983;BME280;48698;45.736;13.926;2023-09-07T14:11:58;98013.94;;;27.24;83.60
52983;BME280;48698;45.736;13.926;2023-09-07T14:17:02;98018.94;;;27.05;82.73
52983;BME280;48698;45.736;13.926;2023-09-07T14:22:05;97986.56;;;27.10;81.99
52983;BME280;48698;45.736;13.926;2023-09-07T14:27:09;98024.91;;;26.92;80.69
52983;BME280;48698;45.736;13.926;2023-09-07T14:32:12;98039.38;;;26.77;79.98
52983;BME280;48698;45.736;13.926;2023-09-07T14:37:16;97754.00;;;25.67;81.00
52983;BME280;48698;45.736;13.926;2023-09-07T14:42:19;97903.38;;;26.35;80.09
52983;BME280;48698;45.736;13.926;2023-09-07T14:47:25;97989.09;;;27.28;80.25
52983;BME280;48698;45.736;13.926;2023-09-07T14:52:29;97992.06;;;26.94;82.67
52983;BME280;48698;45.736;13.926;2023-09-07T14:57:33;97913.53;;;26.49;81.76
52983;BME280;48698;45.736;13.926;2023-09-07T15:02:37;97882.91;;;26.39;81.20
52983;BME280;48698;45.736;13.926;2023-09-07T15:07:41;97991.66;;;27.21;82.02
52983;BME280;48698;45.736;13.926;2023-09-07T15:12:44;97991.63;;;27.37;81.74
52983;BME280;48698;45.736;13.926;2023-09-07T15:17:48;98000.34;;;27.16;81.71
52983;BME280;48698;45.736;13.926;2023-09-07T15:22:52;97957.78;;;26.75;85.19
52983;BME280;48698;45.736;13.926;2023-09-07T15:27:56;97991.47;;;27.22;84.27
52983;BME280;48698;45.736;13.926;2023-09-07T15:32:59;97999.34;;;27.17;83.57
52983;BME280;48698;45.736;13.926;2023-09-07T15:38:03;97917.97;;;26.26;83.97
52983;BME280;48698;45.736;13.926;2023-09-07T15:43:07;97947.59;;;26.61;83.85
52983;BME280;48698;45.736;13.926;2023-09-07T15:48:11;97887.50;;;26.54;81.25
52983;BME280;48698;45.736;13.926;2023-09-07T15:53:15;97947.09;;;26.33;80.54
52983;BME280;48698;45.736;13.926;2023-09-07T15:58:20;97765.50;;;25.29;81.18
52983;BME280;48698;45.736;13.926;2023-09-07T16:03:23;98006.97;;;26.17;82.24
52983;BME280;48698;45.736;13.926;2023-09-07T16:08:27;97985.19;;;26.17;85.18
52983;BME280;48698;45.736;13.926;2023-09-07T16:13:32;97794.81;;;24.75;87.29
52983;BME280;48698;45.736;13.926;2023-09-07T16:18:37;98007.03;;;25.91;86.80
52983;BME280;48698;45.736;13.926;2023-09-07T16:23:43;98006.66;;;25.78;87.64
52983;BME280;48698;45.736;13.926;2023-09-07T16:28:48;98012.56;;;25.74;87.41
52983;BME280;48698;45.736;13.926;2023-09-07T16:33:52;97975.06;;;25.85;87.95
52983;BME280;48698;45.736;13.926;2023-09-07T16:38:56;97957.91;;;26.01;87.50
52983;BME280;48698;45.736;13.926;2023-09-07T16:44:00;97820.75;;;24.36;88.48
52983;BME280;48698;45.736;13.926;2023-09-07T16:49:03;98024.63;;;25.37;91.29
52983;BME280;48698;45.736;13.926;2023-09-07T16:54:07;97979.66;;;24.91;93.07
52983;BME280;48698;45.736;13.926;2023-09-07T16:59:11;98011.91;;;25.12;96.42
52983;BME280;48698;45.736;13.926;2023-09-07T17:04:35;97993.78;;;24.77;99.12
52983;BME280;48698;45.736;13.926;2023-09-07T17:09:40;97907.81;;;24.42;97.34
52983;BME280;48698;45.736;13.926;2023-09-07T17:14:44;97972.84;;;24.87;97.89
52983;BME280;48698;45.736;13.926;2023-09-07T17:19:50;98028.56;;;24.74;100.00
52983;BME280;48698;45.736;13.926;2023-09-07T17:24:54;98019.91;;;24.35;100.00
52983;BME280;48698;45.736;13.926;2023-09-07T17:29:57;98019.53;;;24.02;100.00
52983;BME280;48698;45.736;13.926;2023-09-07T17:35:05;98017.34;;;23.88;100.00
52983;BME280;48698;45.736;13.926;2023-09-07T17:40:09;98004.50;;;23.63;100.00
52983;BME280;48698;45.736;13.926;2023-09-07T17:45:13;98016.97;;;23.56;100.00
52983;BME280;48698;45.736;13.926;2023-09-07T17:50:17;98024.13;;;23.38;100.00
52983;BME280;48698;45.736;13.926;2023-09-07T17:55:20;98034.56;;;23.33;100.00
52983;BME280;48698;45.736;13.926;2023-09-07T18:00:24;98024.41;;;23.35;100.00
52983;BME280;48698;45.736;13.926;2023-09-07T18:05:27;98030.31;;;23.21;100.00
52983;BME280;48698;45.736;13.926;2023-09-07T18:10:31;98047.88;;;23.16;100.00
52983;BME280;48698;45.736;13.926;2023-09-07T18:15:35;98044.53;;;22.76;100.00
52983;BME280;48698;45.736;13.926;2023-09-07T18:20:39;98077.59;;;22.89;100.00
52983;BME280;48698;45.736;13.926;2023-09-07T18:25:43;98099.78;;;22.45;100.00
52983;BME280;48698;45.736;13.926;2023-09-07T18:30:47;98112.63;;;22.43;100.00
52983;BME280;48698;45.736;13.926;2023-09-07T18:36:04;98079.41;;;22.31;100.00
52983;BME280;48698;45.736;13.926;2023-09-07T18:41:09;98113.91;;;22.58;100.00
52983;BME280;48698;45.736;13.926;2023-09-07T18:46:13;98110.31;;;22.57;100.00
52983;BME280;48698;45.736;13.926;2023-09-07T18:51:17;98110.63;;;22.54;100.00
52983;BME280;48698;45.736;13.926;2023-09-07T18:56:20;98055.59;;;22.15;100.00
52983;BME280;48698;45.736;13.926;2023-09-07T19:01:23;98117.75;;;22.46;100.00
52983;BME280;48698;45.736;13.926;2023-09-07T19:06:27;98035.91;;;21.94;100.00
52983;BME280;48698;45.736;13.926;2023-09-07T19:11:31;97878.19;;;20.96;100.00
52983;BME280;48698;45.736;13.926;2023-09-07T19:16:34;98009.50;;;21.67;100.00
52983;BME280;48698;45.736;13.926;2023-09-07T19:21:37;98027.88;;;21.64;100.00
52983;BME280;48698;45.736;13.926;2023-09-07T19:26:41;98054.50;;;21.78;100.00
52983;BME280;48698;45.736;13.926;2023-09-07T19:31:45;98125.63;;;21.99;100.00
52983;BME280;48698;45.736;13.926;2023-09-07T19:36:49;97916.88;;;20.76;100.00
52983;BME280;48698;45.736;13.926;2023-09-07T19:41:52;97874.44;;;20.48;100.00
52983;BME280;48698;45.736;13.926;2023-09-07T19:46:56;98016.81;;;21.37;100.00
52983;BME280;48698;45.736;13.926;2023-09-07T19:52:00;98115.81;;;21.78;100.00
52983;BME280;48698;45.736;13.926;2023-09-07T19:57:14;98115.81;;;21.78;100.00
52983;BME280;48698;45.736;13.926;2023-09-07T20:02:21;98070.94;;;21.56;100.00
52983;BME280;48698;45.736;13.926;2023-09-07T20:07:32;97853.06;;;20.15;100.00
52983;BME280;48698;45.736;13.926;2023-09-07T20:12:36;97990.13;;;21.13;100.00
52983;BME280;48698;45.736;13.926;2023-09-07T20:17:42;97999.41;;;21.20;100.00
52983;BME280;48698;45.736;13.926;2023-09-07T20:22:46;97990.88;;;20.94;100.00
52983;BME280;48698;45.736;13.926;2023-09-07T20:27:50;98104.59;;;21.52;100.00
52983;BME280;48698;45.736;13.926;2023-09-07T20:32:54;97943.13;;;20.44;100.00
52983;BME280;48698;45.736;13.926;2023-09-07T20:37:59;97998.75;;;20.86;100.00
52983;BME280;48698;45.736;13.926;2023-09-07T20:43:02;98082.63;;;21.36;100.00
52983;BME280;48698;45.736;13.926;2023-09-07T20:48:09;98111.97;;;21.40;100.00
52983;BME280;48698;45.736;13.926;2023-09-07T20:53:14;98112.34;;;21.36;100.00
52983;BME280;48698;45.736;13.926;2023-09-07T20:58:18;97958.97;;;20.58;100.00
52983;BME280;48698;45.736;13.926;2023-09-07T21:03:21;98065.78;;;21.23;100.00
52983;BME280;48698;45.736;13.926;2023-09-07T21:08:26;98011.28;;;20.87;100.00
52983;BME280;48698;45.736;13.926;2023-09-07T21:13:29;98027.84;;;21.03;100.00
52983;BME280;48698;45.736;13.926;2023-09-07T21:18:33;98106.13;;;21.45;100.00
52983;BME280;48698;45.736;13.926;2023-09-07T21:23:37;98104.25;;;21.36;100.00
52983;BME280;48698;45.736;13.926;2023-09-07T21:28:41;98119.47;;;21.37;100.00
52983;BME280;48698;45.736;13.926;2023-09-07T21:33:44;98011.94;;;20.59;100.00
52983;BME280;48698;45.736;13.926;2023-09-07T21:38:51;97995.94;;;20.46;100.00
52983;BME280;48698;45.736;13.926;2023-09-07T21:43:54;97840.66;;;19.39;100.00
52983;BME280;48698;45.736;13.926;2023-09-07T21:48:58;97980.03;;;20.43;100.00
52983;BME280;48698;45.736;13.926;2023-09-07T21:54:01;98108.69;;;21.16;100.00
52983;BME280;48698;45.736;13.926;2023-09-07T21:59:06;98095.91;;;21.18;100.00
52983;BME280;48698;45.736;13.926;2023-09-07T22:04:11;98086.09;;;21.17;100.00
52983;BME280;48698;45.736;13.926;2023-09-07T22:09:14;98095.78;;;21.20;100.00
52983;BME280;48698;45.736;13.926;2023-09-07T22:14:19;98046.81;;;21.34;100.00
52983;BME280;48698;45.736;13.926;2023-09-07T22:19:23;98080.47;;;21.60;100.00
52983;BME280;48698;45.736;13.926;2023-09-07T22:24:26;98034.81;;;21.27;100.00
52983;BME280;48698;45.736;13.926;2023-09-07T22:29:32;97850.63;;;20.11;100.00
52983;BME280;48698;45.736;13.926;2023-09-07T22:34:36;97966.59;;;21.04;100.00
52983;BME280;48698;45.736;13.926;2023-09-07T22:39:40;98064.88;;;21.73;100.00
52983;BME280;48698;45.736;13.926;2023-09-07T22:44:44;98064.88;;;21.73;100.00
52983;BME280;48698;45.736;13.926;2023-09-07T22:49:47;97902.94;;;20.71;100.00
52983;BME280;48698;45.736;13.926;2023-09-07T22:54:51;98024.91;;;21.37;100.00
52983;BME280;48698;45.736;13.926;2023-09-07T22:59:55;98026.06;;;20.93;100.00
52983;BME280;48698;45.736;13.926;2023-09-07T23:04:58;97918.94;;;20.22;100.00
52983;BME280;48698;45.736;13.926;2023-09-07T23:10:02;97934.78;;;19.94;100.00
52983;BME280;48698;45.736;13.926;2023-09-07T23:15:06;98106.16;;;21.03;100.00
52983;BME280;48698;45.736;13.926;2023-09-07T23:20:09;98059.88;;;20.87;100.00
52983;BME280;48698;45.736;13.926;2023-09-07T23:25:19;98072.38;;;20.88;100.00
52983;BME280;48698;45.736;13.926;2023-09-07T23:30:22;98045.19;;;20.59;100.00
52983;BME280;48698;45.736;13.926;2023-09-07T23:35:26;98061.50;;;20.58;100.00
52983;BME280;48698;45.736;13.926;2023-09-07T23:40:30;97999.59;;;20.25;100.00
52983;BME280;48698;45.736;13.926;2023-09-07T23:45:51;98061.38;;;20.80;100.00
52983;BME280;48698;45.736;13.926;2023-09-07T23:50:55;98061.84;;;20.85;100.00
52983;BME280;48698;45.736;13.926;2023-09-07T23:55:59;98000.75;;;20.63;100.00
